sensor_id;sensor_type;location;lat;lon;timestamp;P1;durP1;ratioP1;P2;durP2;ratioP2
15553;SDS011;7878;44.632;10.942;2023-04-21T00:00:22;18.93;;;15.63;;
15553;SDS011;7878;44.632;10.942;2023-04-21T00:02:48;18.27;;;15.93;;
15553;SDS011;7878;44.632;10.942;2023-04-21T00:05:15;17.13;;;14.63;;
15553;SDS011;7878;44.632;10.942;2023-04-21T00:07:41;17.03;;;14.83;;
15553;SDS011;7878;44.632;10.942;2023-04-21T00:10:07;15.67;;;13.97;;
15553;SDS011;7878;44.632;10.942;2023-04-21T00:12:33;17.00;;;14.27;;
15553;SDS011;7878;44.632;10.942;2023-04-21T00:14:59;19.23;;;14.50;;
15553;SDS011;7878;44.632;10.942;2023-04-21T00:17:25;15.60;;;13.83;;
15553;SDS011;7878;44.632;10.942;2023-04-21T00:19:50;16.23;;;14.30;;
15553;SDS011;7878;44.632;10.942;2023-04-21T00:22:16;15.27;;;13.30;;
15553;SDS011;7878;44.632;10.942;2023-04-21T00:24:42;17.80;;;13.23;;
15553;SDS011;7878;44.632;10.942;2023-04-21T00:27:07;18.50;;;13.87;;
15553;SDS011;7878;44.632;10.942;2023-04-21T00:29:33;14.80;;;12.37;;
15553;SDS011;7878;44.632;10.942;2023-04-21T00:31:59;15.07;;;12.40;;
15553;SDS011;7878;44.632;10.942;2023-04-21T00:34:26;15.57;;;13.00;;
15553;SDS011;7878;44.632;10.942;2023-04-21T00:36:51;14.50;;;13.00;;
15553;SDS011;7878;44.632;10.942;2023-04-21T00:39:17;15.83;;;14.03;;
15553;SDS011;7878;44.632;10.942;2023-04-21T00:41:42;16.37;;;13.23;;
15553;SDS011;7878;44.632;10.942;2023-04-21T00:44:08;15.73;;;13.07;;
15553;SDS011;7878;44.632;10.942;2023-04-21T00:46:34;15.23;;;12.57;;
15553;SDS011;7878;44.632;10.942;2023-04-21T00:49:05;15.07;;;12.70;;
15553;SDS011;7878;44.632;10.942;2023-04-21T00:51:32;14.47;;;12.30;;
15553;SDS011;7878;44.632;10.942;2023-04-21T00:53:59;19.07;;;13.53;;
15553;SDS011;7878;44.632;10.942;2023-04-21T00:56:27;14.77;;;12.53;;
15553;SDS011;7878;44.632;10.942;2023-04-21T00:58:57;15.40;;;12.77;;
15553;SDS011;7878;44.632;10.942;2023-04-21T01:01:23;14.33;;;12.37;;
15553;SDS011;7878;44.632;10.942;2023-04-21T01:03:49;14.67;;;12.53;;
15553;SDS011;7878;44.632;10.942;2023-04-21T01:06:16;15.57;;;12.07;;
15553;SDS011;7878;44.632;10.942;2023-04-21T01:08:42;14.10;;;12.47;;
15553;SDS011;7878;44.632;10.942;2023-04-21T01:11:11;20.13;;;11.70;;
15553;SDS011;7878;44.632;10.942;2023-04-21T01:13:38;15.33;;;12.00;;
15553;SDS011;7878;44.632;10.942;2023-04-21T01:16:04;15.10;;;12.60;;
15553;SDS011;7878;44.632;10.942;2023-04-21T01:18:30;15.57;;;12.00;;
15553;SDS011;7878;44.632;10.942;2023-04-21T01:20:56;13.57;;;12.10;;
15553;SDS011;7878;44.632;10.942;2023-04-21T01:23:25;16.53;;;11.93;;
15553;SDS011;7878;44.632;10.942;2023-04-21T01:25:51;14.93;;;12.53;;
15553;SDS011;7878;44.632;10.942;2023-04-21T01:28:23;14.00;;;12.50;;
15553;SDS011;7878;44.632;10.942;2023-04-21T01:30:50;17.93;;;12.10;;
15553;SDS011;7878;44.632;10.942;2023-04-21T01:33:16;14.63;;;11.50;;
15553;SDS011;7878;44.632;10.942;2023-04-21T01:35:43;13.87;;;11.20;;
15553;SDS011;7878;44.632;10.942;2023-04-21T01:38:09;15.57;;;11.97;;
15553;SDS011;7878;44.632;10.942;2023-04-21T01:40:35;15.83;;;12.87;;
15553;SDS011;7878;44.632;10.942;2023-04-21T01:43:01;14.73;;;11.80;;
15553;SDS011;7878;44.632;10.942;2023-04-21T01:45:29;13.77;;;12.10;;
15553;SDS011;7878;44.632;10.942;2023-04-21T01:47:56;13.00;;;11.50;;
15553;SDS011;7878;44.632;10.942;2023-04-21T01:50:21;16.27;;;11.63;;
15553;SDS011;7878;44.632;10.942;2023-04-21T01:52:47;13.70;;;11.33;;
15553;SDS011;7878;44.632;10.942;2023-04-21T01:55:13;13.33;;;11.87;;
15553;SDS011;7878;44.632;10.942;2023-04-21T01:57:39;14.33;;;11.23;;
15553;SDS011;7878;44.632;10.942;2023-04-21T02:00:05;15.53;;;12.23;;
15553;SDS011;7878;44.632;10.942;2023-04-21T02:02:31;12.63;;;11.33;;
15553;SDS011;7878;44.632;10.942;2023-04-21T02:04:57;14.70;;;11.67;;
15553;SDS011;7878;44.632;10.942;2023-04-21T02:07:22;17.97;;;11.87;;
15553;SDS011;7878;44.632;10.942;2023-04-21T02:09:48;13.43;;;11.67;;
15553;SDS011;7878;44.632;10.942;2023-04-21T02:12:14;15.67;;;12.10;;
15553;SDS011;7878;44.632;10.942;2023-04-21T02:14:39;12.50;;;11.07;;
15553;SDS011;7878;44.632;10.942;2023-04-21T02:17:05;14.03;;;11.77;;
15553;SDS011;7878;44.632;10.942;2023-04-21T02:19:31;13.53;;;11.20;;
15553;SDS011;7878;44.632;10.942;2023-04-21T02:21:57;18.60;;;11.83;;
15553;SDS011;7878;44.632;10.942;2023-04-21T02:24:22;14.80;;;11.20;;
15553;SDS011;7878;44.632;10.942;2023-04-21T02:26:48;13.83;;;11.67;;
15553;SDS011;7878;44.632;10.942;2023-04-21T02:29:14;15.30;;;11.50;;
15553;SDS011;7878;44.632;10.942;2023-04-21T02:31:39;13.93;;;11.57;;
15553;SDS011;7878;44.632;10.942;2023-04-21T02:34:05;16.10;;;11.23;;
15553;SDS011;7878;44.632;10.942;2023-04-21T02:36:31;13.67;;;12.03;;
15553;SDS011;7878;44.632;10.942;2023-04-21T02:38:57;15.13;;;10.97;;
15553;SDS011;7878;44.632;10.942;2023-04-21T02:41:23;14.70;;;11.13;;
15553;SDS011;7878;44.632;10.942;2023-04-21T02:43:49;15.20;;;11.93;;
15553;SDS011;7878;44.632;10.942;2023-04-21T02:46:14;14.10;;;11.80;;
15553;SDS011;7878;44.632;10.942;2023-04-21T02:48:40;14.47;;;11.53;;
15553;SDS011;7878;44.632;10.942;2023-04-21T02:51:14;20.57;;;11.40;;
15553;SDS011;7878;44.632;10.942;2023-04-21T02:53:40;14.17;;;11.40;;
15553;SDS011;7878;44.632;10.942;2023-04-21T02:56:07;18.67;;;12.10;;
15553;SDS011;7878;44.632;10.942;2023-04-21T02:58:36;15.77;;;12.03;;
15553;SDS011;7878;44.632;10.942;2023-04-21T03:01:02;16.10;;;11.63;;
15553;SDS011;7878;44.632;10.942;2023-04-21T03:03:28;12.80;;;11.47;;
15553;SDS011;7878;44.632;10.942;2023-04-21T03:05:58;14.00;;;11.67;;
15553;SDS011;7878;44.632;10.942;2023-04-21T03:08:25;15.43;;;11.20;;
15553;SDS011;7878;44.632;10.942;2023-04-21T03:10:51;12.73;;;10.40;;
15553;SDS011;7878;44.632;10.942;2023-04-21T03:13:16;16.93;;;11.77;;
15553;SDS011;7878;44.632;10.942;2023-04-21T03:15:42;14.33;;;11.20;;
15553;SDS011;7878;44.632;10.942;2023-04-21T03:18:08;12.20;;;10.83;;
15553;SDS011;7878;44.632;10.942;2023-04-21T03:20:34;14.43;;;11.93;;
15553;SDS011;7878;44.632;10.942;2023-04-21T03:23:00;17.00;;;12.20;;
15553;SDS011;7878;44.632;10.942;2023-04-21T03:25:26;15.47;;;11.37;;
15553;SDS011;7878;44.632;10.942;2023-04-21T03:27:52;15.07;;;12.00;;
15553;SDS011;7878;44.632;10.942;2023-04-21T03:30:19;13.30;;;11.47;;
15553;SDS011;7878;44.632;10.942;2023-04-21T03:32:45;12.87;;;11.53;;
15553;SDS011;7878;44.632;10.942;2023-04-21T03:35:10;15.53;;;12.20;;
15553;SDS011;7878;44.632;10.942;2023-04-21T03:37:36;13.47;;;11.00;;
15553;SDS011;7878;44.632;10.942;2023-04-21T03:40:02;15.13;;;11.67;;
15553;SDS011;7878;44.632;10.942;2023-04-21T03:42:32;14.33;;;10.97;;
15553;SDS011;7878;44.632;10.942;2023-04-21T03:45:05;14.00;;;11.37;;
15553;SDS011;7878;44.632;10.942;2023-04-21T03:47:32;18.43;;;11.33;;
15553;SDS011;7878;44.632;10.942;2023-04-21T03:49:58;13.20;;;11.80;;
15553;SDS011;7878;44.632;10.942;2023-04-21T03:52:23;12.87;;;11.20;;
15553;SDS011;7878;44.632;10.942;2023-04-21T03:54:49;18.23;;;11.10;;
15553;SDS011;7878;44.632;10.942;2023-04-21T03:57:15;17.00;;;12.40;;
15553;SDS011;7878;44.632;10.942;2023-04-21T03:59:41;17.33;;;12.20;;
15553;SDS011;7878;44.632;10.942;2023-04-21T04:02:07;15.33;;;12.30;;
15553;SDS011;7878;44.632;10.942;2023-04-21T04:04:33;14.17;;;11.87;;
15553;SDS011;7878;44.632;10.942;2023-04-21T04:07:00;17.57;;;11.80;;
15553;SDS011;7878;44.632;10.942;2023-04-21T04:09:26;19.07;;;13.57;;
15553;SDS011;7878;44.632;10.942;2023-04-21T04:11:51;15.30;;;12.27;;
15553;SDS011;7878;44.632;10.942;2023-04-21T04:14:17;13.33;;;11.97;;
15553;SDS011;7878;44.632;10.942;2023-04-21T04:16:43;15.67;;;12.50;;
15553;SDS011;7878;44.632;10.942;2023-04-21T04:19:08;15.80;;;12.53;;
15553;SDS011;7878;44.632;10.942;2023-04-21T04:21:35;15.57;;;13.80;;
15553;SDS011;7878;44.632;10.942;2023-04-21T04:24:01;15.60;;;13.03;;
15553;SDS011;7878;44.632;10.942;2023-04-21T04:26:29;12.97;;;11.67;;
15553;SDS011;7878;44.632;10.942;2023-04-21T04:28:54;18.03;;;13.40;;
15553;SDS011;7878;44.632;10.942;2023-04-21T04:31:23;15.07;;;12.33;;
15553;SDS011;7878;44.632;10.942;2023-04-21T04:33:52;17.33;;;12.70;;
15553;SDS011;7878;44.632;10.942;2023-04-21T04:36:17;15.73;;;12.87;;
15553;SDS011;7878;44.632;10.942;2023-04-21T04:38:43;18.90;;;13.07;;
15553;SDS011;7878;44.632;10.942;2023-04-21T04:41:10;18.13;;;14.63;;
15553;SDS011;7878;44.632;10.942;2023-04-21T04:43:36;18.37;;;16.27;;
15553;SDS011;7878;44.632;10.942;2023-04-21T04:46:03;19.87;;;16.27;;
15553;SDS011;7878;44.632;10.942;2023-04-21T04:48:29;23.70;;;17.33;;
15553;SDS011;7878;44.632;10.942;2023-04-21T04:50:55;20.87;;;17.20;;
15553;SDS011;7878;44.632;10.942;2023-04-21T04:53:21;19.60;;;16.97;;
15553;SDS011;7878;44.632;10.942;2023-04-21T04:55:47;23.17;;;17.20;;
15553;SDS011;7878;44.632;10.942;2023-04-21T04:58:13;20.37;;;16.40;;
15553;SDS011;7878;44.632;10.942;2023-04-21T05:00:38;18.63;;;16.17;;
15553;SDS011;7878;44.632;10.942;2023-04-21T05:03:04;21.23;;;15.60;;
15553;SDS011;7878;44.632;10.942;2023-04-21T05:05:30;18.47;;;16.23;;
15553;SDS011;7878;44.632;10.942;2023-04-21T05:07:56;20.67;;;15.83;;
15553;SDS011;7878;44.632;10.942;2023-04-21T05:10:22;21.07;;;15.40;;
15553;SDS011;7878;44.632;10.942;2023-04-21T05:12:48;16.73;;;14.93;;
15553;SDS011;7878;44.632;10.942;2023-04-21T05:15:14;17.77;;;14.87;;
15553;SDS011;7878;44.632;10.942;2023-04-21T05:17:41;17.73;;;14.53;;
15553;SDS011;7878;44.632;10.942;2023-04-21T05:20:06;18.67;;;15.27;;
15553;SDS011;7878;44.632;10.942;2023-04-21T05:22:36;17.37;;;14.63;;
15553;SDS011;7878;44.632;10.942;2023-04-21T05:25:02;22.33;;;15.40;;
15553;SDS011;7878;44.632;10.942;2023-04-21T05:27:29;20.03;;;14.87;;
15553;SDS011;7878;44.632;10.942;2023-04-21T05:29:54;24.63;;;14.73;;
15553;SDS011;7878;44.632;10.942;2023-04-21T05:32:20;17.37;;;14.73;;
15553;SDS011;7878;44.632;10.942;2023-04-21T05:34:46;20.50;;;15.27;;
15553;SDS011;7878;44.632;10.942;2023-04-21T05:37:11;19.33;;;14.30;;
15553;SDS011;7878;44.632;10.942;2023-04-21T05:39:37;19.63;;;13.60;;
15553;SDS011;7878;44.632;10.942;2023-04-21T05:42:03;19.63;;;15.30;;
15553;SDS011;7878;44.632;10.942;2023-04-21T05:44:29;19.60;;;14.80;;
15553;SDS011;7878;44.632;10.942;2023-04-21T05:46:54;16.33;;;14.63;;
15553;SDS011;7878;44.632;10.942;2023-04-21T05:49:20;19.73;;;15.23;;
15553;SDS011;7878;44.632;10.942;2023-04-21T05:51:46;18.67;;;15.50;;
15553;SDS011;7878;44.632;10.942;2023-04-21T05:54:11;21.23;;;15.77;;
15553;SDS011;7878;44.632;10.942;2023-04-21T05:56:37;17.33;;;15.07;;
15553;SDS011;7878;44.632;10.942;2023-04-21T05:59:03;18.37;;;14.67;;
15553;SDS011;7878;44.632;10.942;2023-04-21T06:01:30;19.50;;;14.77;;
15553;SDS011;7878;44.632;10.942;2023-04-21T06:03:56;17.03;;;14.97;;
15553;SDS011;7878;44.632;10.942;2023-04-21T06:06:24;19.43;;;15.63;;
15553;SDS011;7878;44.632;10.942;2023-04-21T06:08:50;22.00;;;15.23;;
15553;SDS011;7878;44.632;10.942;2023-04-21T06:11:15;22.40;;;15.80;;
15553;SDS011;7878;44.632;10.942;2023-04-21T06:13:41;21.93;;;15.53;;
15553;SDS011;7878;44.632;10.942;2023-04-21T06:16:07;23.83;;;15.23;;
15553;SDS011;7878;44.632;10.942;2023-04-21T06:18:32;20.63;;;16.37;;
15553;SDS011;7878;44.632;10.942;2023-04-21T06:20:58;23.33;;;17.10;;
15553;SDS011;7878;44.632;10.942;2023-04-21T06:23:24;22.07;;;16.47;;
15553;SDS011;7878;44.632;10.942;2023-04-21T06:26:02;22.47;;;15.47;;
15553;SDS011;7878;44.632;10.942;2023-04-21T06:28:33;23.60;;;16.10;;
15553;SDS011;7878;44.632;10.942;2023-04-21T06:31:00;28.83;;;16.40;;
15553;SDS011;7878;44.632;10.942;2023-04-21T06:33:26;25.90;;;17.23;;
15553;SDS011;7878;44.632;10.942;2023-04-21T06:35:53;26.03;;;16.00;;
15553;SDS011;7878;44.632;10.942;2023-04-21T06:38:19;20.23;;;16.33;;
15553;SDS011;7878;44.632;10.942;2023-04-21T06:40:44;21.87;;;15.80;;
15553;SDS011;7878;44.632;10.942;2023-04-21T06:43:10;22.60;;;16.87;;
15553;SDS011;7878;44.632;10.942;2023-04-21T06:45:36;21.47;;;17.97;;
15553;SDS011;7878;44.632;10.942;2023-04-21T06:48:01;23.67;;;16.90;;
15553;SDS011;7878;44.632;10.942;2023-04-21T06:50:27;23.87;;;16.77;;
15553;SDS011;7878;44.632;10.942;2023-04-21T06:52:53;26.57;;;17.23;;
15553;SDS011;7878;44.632;10.942;2023-04-21T06:55:18;21.57;;;17.03;;
15553;SDS011;7878;44.632;10.942;2023-04-21T06:57:44;22.90;;;16.33;;
15553;SDS011;7878;44.632;10.942;2023-04-21T07:00:10;23.90;;;17.17;;
15553;SDS011;7878;44.632;10.942;2023-04-21T07:02:36;22.97;;;16.50;;
15553;SDS011;7878;44.632;10.942;2023-04-21T07:05:02;23.07;;;16.60;;
15553;SDS011;7878;44.632;10.942;2023-04-21T07:07:28;22.13;;;16.67;;
15553;SDS011;7878;44.632;10.942;2023-04-21T07:09:54;26.37;;;16.73;;
15553;SDS011;7878;44.632;10.942;2023-04-21T07:12:19;22.23;;;16.37;;
15553;SDS011;7878;44.632;10.942;2023-04-21T07:14:45;19.83;;;16.77;;
15553;SDS011;7878;44.632;10.942;2023-04-21T07:17:11;27.20;;;18.43;;
15553;SDS011;7878;44.632;10.942;2023-04-21T07:19:38;23.37;;;17.47;;
15553;SDS011;7878;44.632;10.942;2023-04-21T07:22:03;25.00;;;19.03;;
15553;SDS011;7878;44.632;10.942;2023-04-21T07:24:29;27.47;;;19.30;;
15553;SDS011;7878;44.632;10.942;2023-04-21T07:26:56;31.90;;;21.90;;
15553;SDS011;7878;44.632;10.942;2023-04-21T07:29:21;29.40;;;21.37;;
15553;SDS011;7878;44.632;10.942;2023-04-21T07:31:47;34.00;;;23.13;;
15553;SDS011;7878;44.632;10.942;2023-04-21T07:34:13;26.57;;;19.00;;
15553;SDS011;7878;44.632;10.942;2023-04-21T07:36:39;29.00;;;21.20;;
15553;SDS011;7878;44.632;10.942;2023-04-21T07:39:05;28.13;;;21.63;;
15553;SDS011;7878;44.632;10.942;2023-04-21T07:41:30;37.87;;;24.63;;
15553;SDS011;7878;44.632;10.942;2023-04-21T07:43:56;34.83;;;21.60;;
15553;SDS011;7878;44.632;10.942;2023-04-21T07:46:22;31.10;;;20.80;;
15553;SDS011;7878;44.632;10.942;2023-04-21T07:48:53;30.57;;;20.57;;
15553;SDS011;7878;44.632;10.942;2023-04-21T07:51:23;31.23;;;22.30;;
15553;SDS011;7878;44.632;10.942;2023-04-21T07:53:49;32.77;;;22.80;;
15553;SDS011;7878;44.632;10.942;2023-04-21T07:56:15;27.10;;;20.90;;
15553;SDS011;7878;44.632;10.942;2023-04-21T07:58:41;28.97;;;22.03;;
15553;SDS011;7878;44.632;10.942;2023-04-21T08:01:07;29.87;;;22.07;;
15553;SDS011;7878;44.632;10.942;2023-04-21T08:03:33;24.33;;;19.13;;
15553;SDS011;7878;44.632;10.942;2023-04-21T08:05:58;23.13;;;18.90;;
15553;SDS011;7878;44.632;10.942;2023-04-21T08:08:24;25.80;;;19.67;;
15553;SDS011;7878;44.632;10.942;2023-04-21T08:10:50;25.13;;;18.50;;
15553;SDS011;7878;44.632;10.942;2023-04-21T08:13:15;24.33;;;18.67;;
15553;SDS011;7878;44.632;10.942;2023-04-21T08:15:41;24.70;;;19.90;;
15553;SDS011;7878;44.632;10.942;2023-04-21T08:18:07;26.27;;;21.40;;
15553;SDS011;7878;44.632;10.942;2023-04-21T08:20:33;26.07;;;20.43;;
15553;SDS011;7878;44.632;10.942;2023-04-21T08:22:59;27.47;;;20.13;;
15553;SDS011;7878;44.632;10.942;2023-04-21T08:25:25;25.43;;;19.17;;
15553;SDS011;7878;44.632;10.942;2023-04-21T08:27:50;23.37;;;19.13;;
15553;SDS011;7878;44.632;10.942;2023-04-21T08:30:16;25.97;;;20.40;;
15553;SDS011;7878;44.632;10.942;2023-04-21T08:32:42;22.50;;;18.80;;
15553;SDS011;7878;44.632;10.942;2023-04-21T08:35:08;25.37;;;20.03;;
15553;SDS011;7878;44.632;10.942;2023-04-21T08:37:37;24.03;;;19.50;;
15553;SDS011;7878;44.632;10.942;2023-04-21T08:40:04;25.57;;;20.33;;
15553;SDS011;7878;44.632;10.942;2023-04-21T08:42:31;25.47;;;20.20;;
15553;SDS011;7878;44.632;10.942;2023-04-21T08:44:57;23.27;;;20.10;;
15553;SDS011;7878;44.632;10.942;2023-04-21T08:47:23;24.20;;;18.93;;
15553;SDS011;7878;44.632;10.942;2023-04-21T08:49:49;28.57;;;19.63;;
15553;SDS011;7878;44.632;10.942;2023-04-21T08:52:16;20.83;;;18.43;;
15553;SDS011;7878;44.632;10.942;2023-04-21T08:54:42;24.50;;;17.97;;
15553;SDS011;7878;44.632;10.942;2023-04-21T08:57:08;22.03;;;17.50;;
15553;SDS011;7878;44.632;10.942;2023-04-21T08:59:34;20.73;;;16.47;;
15553;SDS011;7878;44.632;10.942;2023-04-21T09:02:06;26.27;;;17.27;;
15553;SDS011;7878;44.632;10.942;2023-04-21T09:04:38;19.60;;;17.53;;
15553;SDS011;7878;44.632;10.942;2023-04-21T09:07:09;21.83;;;17.00;;
15553;SDS011;7878;44.632;10.942;2023-04-21T09:09:53;16.92;;;14.63;;
15553;SDS011;7878;44.632;10.942;2023-04-21T09:12:20;22.13;;;16.27;;
15553;SDS011;7878;44.632;10.942;2023-04-21T09:14:46;21.90;;;17.67;;
15553;SDS011;7878;44.632;10.942;2023-04-21T09:17:13;19.35;;;16.92;;
15553;SDS011;7878;44.632;10.942;2023-04-21T09:19:40;20.63;;;17.00;;
15553;SDS011;7878;44.632;10.942;2023-04-21T09:22:05;18.58;;;16.10;;
15553;SDS011;7878;44.632;10.942;2023-04-21T09:24:31;23.02;;;17.08;;
15553;SDS011;7878;44.632;10.942;2023-04-21T09:26:57;20.58;;;16.33;;
15553;SDS011;7878;44.632;10.942;2023-04-21T09:29:23;21.30;;;16.52;;
15553;SDS011;7878;44.632;10.942;2023-04-21T09:31:50;20.60;;;16.15;;
15553;SDS011;7878;44.632;10.942;2023-04-21T09:34:17;17.55;;;15.23;;
15553;SDS011;7878;44.632;10.942;2023-04-21T09:36:45;20.83;;;15.95;;
15553;SDS011;7878;44.632;10.942;2023-04-21T09:39:11;20.23;;;16.05;;
15553;SDS011;7878;44.632;10.942;2023-04-21T09:41:37;18.17;;;15.43;;
15553;SDS011;7878;44.632;10.942;2023-04-21T09:44:02;17.23;;;15.43;;
15553;SDS011;7878;44.632;10.942;2023-04-21T09:46:31;18.55;;;15.25;;
15553;SDS011;7878;44.632;10.942;2023-04-21T09:49:01;18.95;;;15.02;;
15553;SDS011;7878;44.632;10.942;2023-04-21T09:51:28;21.42;;;15.30;;
15553;SDS011;7878;44.632;10.942;2023-04-21T09:53:57;16.65;;;14.55;;
15553;SDS011;7878;44.632;10.942;2023-04-21T09:56:24;17.55;;;14.77;;
15553;SDS011;7878;44.632;10.942;2023-04-21T09:58:54;17.95;;;14.80;;
15553;SDS011;7878;44.632;10.942;2023-04-21T10:01:25;14.80;;;13.30;;
15553;SDS011;7878;44.632;10.942;2023-04-21T10:03:53;15.90;;;14.23;;
15553;SDS011;7878;44.632;10.942;2023-04-21T10:06:19;16.45;;;13.85;;
15553;SDS011;7878;44.632;10.942;2023-04-21T10:08:45;20.98;;;15.23;;
15553;SDS011;7878;44.632;10.942;2023-04-21T10:11:11;16.70;;;14.40;;
15553;SDS011;7878;44.632;10.942;2023-04-21T10:13:38;21.42;;;15.35;;
15553;SDS011;7878;44.632;10.942;2023-04-21T10:16:08;15.98;;;14.27;;
15553;SDS011;7878;44.632;10.942;2023-04-21T10:18:37;15.80;;;14.02;;
15553;SDS011;7878;44.632;10.942;2023-04-21T10:21:09;18.05;;;15.32;;
15553;SDS011;7878;44.632;10.942;2023-04-21T10:23:43;16.10;;;14.40;;
15553;SDS011;7878;44.632;10.942;2023-04-21T10:26:11;16.33;;;14.35;;
15553;SDS011;7878;44.632;10.942;2023-04-21T10:28:51;17.38;;;13.73;;
15553;SDS011;7878;44.632;10.942;2023-04-21T10:31:22;16.58;;;14.77;;
15553;SDS011;7878;44.632;10.942;2023-04-21T10:36:31;17.63;;;13.88;;
15553;SDS011;7878;44.632;10.942;2023-04-21T10:39:02;15.05;;;13.55;;
15553;SDS011;7878;44.632;10.942;2023-04-21T10:41:31;15.10;;;13.50;;
15553;SDS011;7878;44.632;10.942;2023-04-21T10:44:14;19.65;;;14.20;;
15553;SDS011;7878;44.632;10.942;2023-04-21T10:46:47;18.60;;;13.82;;
15553;SDS011;7878;44.632;10.942;2023-04-21T10:57:13;15.13;;;12.80;;
15553;SDS011;7878;44.632;10.942;2023-04-21T10:59:44;15.93;;;11.98;;
15553;SDS011;7878;44.632;10.942;2023-04-21T11:02:11;13.27;;;11.95;;
15553;SDS011;7878;44.632;10.942;2023-04-21T11:04:38;14.13;;;11.70;;
15553;SDS011;7878;44.632;10.942;2023-04-21T11:07:09;17.67;;;12.52;;
15553;SDS011;7878;44.632;10.942;2023-04-21T11:09:36;17.88;;;12.05;;
15553;SDS011;7878;44.632;10.942;2023-04-21T11:12:04;13.95;;;10.48;;
15553;SDS011;7878;44.632;10.942;2023-04-21T11:14:32;12.45;;;11.15;;
15553;SDS011;7878;44.632;10.942;2023-04-21T11:17:04;10.07;;;8.70;;
15553;SDS011;7878;44.632;10.942;2023-04-21T11:19:35;10.55;;;8.52;;
15553;SDS011;7878;44.632;10.942;2023-04-21T11:22:02;8.40;;;6.78;;
15553;SDS011;7878;44.632;10.942;2023-04-21T11:24:28;7.22;;;5.82;;
15553;SDS011;7878;44.632;10.942;2023-04-21T11:26:55;7.65;;;5.63;;
15553;SDS011;7878;44.632;10.942;2023-04-21T11:29:20;6.25;;;5.03;;
15553;SDS011;7878;44.632;10.942;2023-04-21T11:31:47;7.65;;;5.97;;
15553;SDS011;7878;44.632;10.942;2023-04-21T11:34:14;7.85;;;6.10;;
15553;SDS011;7878;44.632;10.942;2023-04-21T11:36:45;6.32;;;5.70;;
15553;SDS011;7878;44.632;10.942;2023-04-21T11:39:13;6.78;;;6.10;;
15553;SDS011;7878;44.632;10.942;2023-04-21T11:41:41;9.35;;;7.28;;
15553;SDS011;7878;44.632;10.942;2023-04-21T11:44:11;12.02;;;7.32;;
15553;SDS011;7878;44.632;10.942;2023-04-21T11:46:44;7.70;;;7.00;;
15553;SDS011;7878;44.632;10.942;2023-04-21T11:49:11;9.93;;;7.68;;
15553;SDS011;7878;44.632;10.942;2023-04-21T11:51:39;8.43;;;6.93;;
15553;SDS011;7878;44.632;10.942;2023-04-21T11:54:08;7.68;;;6.88;;
15553;SDS011;7878;44.632;10.942;2023-04-21T11:56:38;11.75;;;8.02;;
15553;SDS011;7878;44.632;10.942;2023-04-21T11:59:09;8.65;;;7.75;;
15553;SDS011;7878;44.632;10.942;2023-04-21T12:01:46;10.13;;;8.52;;
15553;SDS011;7878;44.632;10.942;2023-04-21T12:04:14;8.40;;;7.55;;
15553;SDS011;7878;44.632;10.942;2023-04-21T12:06:44;8.07;;;7.28;;
15553;SDS011;7878;44.632;10.942;2023-04-21T12:09:17;9.93;;;7.97;;
15553;SDS011;7878;44.632;10.942;2023-04-21T12:11:46;7.97;;;7.00;;
15553;SDS011;7878;44.632;10.942;2023-04-21T12:14:16;7.85;;;7.05;;
15553;SDS011;7878;44.632;10.942;2023-04-21T12:16:43;9.95;;;8.15;;
15553;SDS011;7878;44.632;10.942;2023-04-21T12:19:17;7.32;;;6.63;;
15553;SDS011;7878;44.632;10.942;2023-04-21T12:22:07;8.02;;;7.20;;
15553;SDS011;7878;44.632;10.942;2023-04-21T12:24:36;8.35;;;7.25;;
15553;SDS011;7878;44.632;10.942;2023-04-21T12:27:03;11.27;;;8.20;;
15553;SDS011;7878;44.632;10.942;2023-04-21T12:29:29;12.30;;;8.65;;
15553;SDS011;7878;44.632;10.942;2023-04-21T12:31:55;8.43;;;7.63;;
15553;SDS011;7878;44.632;10.942;2023-04-21T12:34:21;10.45;;;8.32;;
15553;SDS011;7878;44.632;10.942;2023-04-21T12:36:46;10.27;;;8.18;;
15553;SDS011;7878;44.632;10.942;2023-04-21T12:39:12;9.82;;;8.85;;
15553;SDS011;7878;44.632;10.942;2023-04-21T12:41:39;11.20;;;7.60;;
15553;SDS011;7878;44.632;10.942;2023-04-21T12:44:05;11.02;;;7.65;;
15553;SDS011;7878;44.632;10.942;2023-04-21T12:46:30;11.00;;;7.88;;
15553;SDS011;7878;44.632;10.942;2023-04-21T12:48:56;10.68;;;8.13;;
15553;SDS011;7878;44.632;10.942;2023-04-21T12:51:22;12.38;;;8.90;;
15553;SDS011;7878;44.632;10.942;2023-04-21T12:53:48;8.70;;;7.80;;
15553;SDS011;7878;44.632;10.942;2023-04-21T12:56:13;10.73;;;7.65;;
15553;SDS011;7878;44.632;10.942;2023-04-21T12:58:39;10.40;;;8.13;;
15553;SDS011;7878;44.632;10.942;2023-04-21T13:01:06;10.30;;;8.02;;
15553;SDS011;7878;44.632;10.942;2023-04-21T13:03:32;8.55;;;7.75;;
15553;SDS011;7878;44.632;10.942;2023-04-21T13:05:58;10.38;;;7.80;;
15553;SDS011;7878;44.632;10.942;2023-04-21T13:08:24;8.93;;;7.68;;
15553;SDS011;7878;44.632;10.942;2023-04-21T13:10:49;9.85;;;8.57;;
15553;SDS011;7878;44.632;10.942;2023-04-21T13:13:15;13.05;;;8.20;;
15553;SDS011;7878;44.632;10.942;2023-04-21T13:15:41;8.15;;;6.70;;
15553;SDS011;7878;44.632;10.942;2023-04-21T13:18:06;9.20;;;7.93;;
15553;SDS011;7878;44.632;10.942;2023-04-21T13:20:32;10.63;;;9.23;;
15553;SDS011;7878;44.632;10.942;2023-04-21T13:22:58;9.38;;;8.50;;
15553;SDS011;7878;44.632;10.942;2023-04-21T13:25:23;10.27;;;9.30;;
15553;SDS011;7878;44.632;10.942;2023-04-21T13:27:49;10.07;;;8.88;;
15553;SDS011;7878;44.632;10.942;2023-04-21T13:30:16;12.27;;;9.55;;
15553;SDS011;7878;44.632;10.942;2023-04-21T13:32:42;12.10;;;9.68;;
15553;SDS011;7878;44.632;10.942;2023-04-21T13:35:08;14.20;;;10.32;;
15553;SDS011;7878;44.632;10.942;2023-04-21T13:37:38;11.98;;;9.77;;
15553;SDS011;7878;44.632;10.942;2023-04-21T13:40:05;10.02;;;8.95;;
15553;SDS011;7878;44.632;10.942;2023-04-21T13:42:33;10.75;;;8.90;;
15553;SDS011;7878;44.632;10.942;2023-04-21T13:44:59;9.88;;;7.50;;
15553;SDS011;7878;44.632;10.942;2023-04-21T13:47:28;9.95;;;7.57;;
15553;SDS011;7878;44.632;10.942;2023-04-21T13:49:55;8.82;;;7.93;;
15553;SDS011;7878;44.632;10.942;2023-04-21T13:52:20;8.73;;;7.78;;
15553;SDS011;7878;44.632;10.942;2023-04-21T13:54:46;9.48;;;7.53;;
15553;SDS011;7878;44.632;10.942;2023-04-21T13:57:12;8.82;;;7.28;;
15553;SDS011;7878;44.632;10.942;2023-04-21T13:59:37;9.32;;;6.47;;
15553;SDS011;7878;44.632;10.942;2023-04-21T14:02:03;9.77;;;7.82;;
15553;SDS011;7878;44.632;10.942;2023-04-21T14:04:29;8.18;;;6.88;;
15553;SDS011;7878;44.632;10.942;2023-04-21T14:06:55;10.15;;;7.70;;
15553;SDS011;7878;44.632;10.942;2023-04-21T14:09:20;8.05;;;7.25;;
15553;SDS011;7878;44.632;10.942;2023-04-21T14:11:46;7.38;;;6.07;;
15553;SDS011;7878;44.632;10.942;2023-04-21T14:14:12;6.38;;;5.78;;
15553;SDS011;7878;44.632;10.942;2023-04-21T14:16:37;9.93;;;6.43;;
15553;SDS011;7878;44.632;10.942;2023-04-21T14:19:03;6.68;;;6.07;;
15553;SDS011;7878;44.632;10.942;2023-04-21T14:21:29;7.95;;;6.72;;
15553;SDS011;7878;44.632;10.942;2023-04-21T14:23:55;8.43;;;5.55;;
15553;SDS011;7878;44.632;10.942;2023-04-21T14:26:21;6.13;;;5.35;;
15553;SDS011;7878;44.632;10.942;2023-04-21T14:28:47;6.50;;;4.85;;
15553;SDS011;7878;44.632;10.942;2023-04-21T14:31:13;5.57;;;5.07;;
15553;SDS011;7878;44.632;10.942;2023-04-21T14:33:39;6.13;;;5.53;;